Time;durP1;ratioP1;P1;durP2;ratioP2;P2;SDS_P1;SDS_P2;PMS_P1;PMS_P2;Temp;Humidity;BMP_temperature;BMP_pressure;BME280_temperature;BME280_humidity;BME280_pressure;Samples;Min_cycle;Max_cycle;Signal;HPM_P1;HPM_P2
2022/04/27 00:00:37;;;;;;;;;;;;;;;18.99;45.57;100785.05;101835;1342;61331;-84
2022/04/27 00:03:37;;;;;;;;;;;;;;;18.98;45.55;100790.59;101819;1344;61471;-86
2022/04/27 00:06:22;;;;;;;;;;;;;;;18.99;45.52;100795.58;101687;1347;73962;-83
2022/04/27 00:09:29;;;;;;;;;;;;;;;18.98;45.54;100795.40;101683;1347;75738;-79
2022/04/27 00:12:15;;;;;;;;;;;;;;;18.98;45.57;100793.79;101679;1347;61444;-84
2022/04/27 00:15:23;;;;;;;;;;;;;;;;;;;;;
2022/04/27 00:18:12;;;;;;;;;;;;;;;18.98;45.57;100788.98;101584;1348;74107;-83
2022/04/27 00:20:53;;;;;;;;;;;;;;;;;;;;;
2022/04/27 00:23:30;;;;;;;;;;;;;;;;;;;;;
2022/04/27 00:26:56;;;;;;;;;;;;;;;;;;;;;
2022/04/27 00:29:44;;;;;;;;;;;;;;;18.98;45.50;100782.77;101640;1346;72844;-84
2022/04/27 00:32:40;;;;;;;;;;;;;;;18.98;45.48;100787.76;101800;1342;75946;-82
2022/04/27 00:35:35;;;;;;;;;;;;;;;18.98;45.51;100788.27;101808;1343;61356;-84
2022/04/27 00:38:37;;;;;;;;;;;;;;;18.98;45.55;100785.64;101947;1337;61665;-86
2022/04/27 00:41:24;;;;;;;;;;;;;;;18.98;45.53;100786.36;101974;1337;73030;-82
2022/04/27 00:44:09;;;;;;;;;;;;;;;18.98;45.54;100788.67;102314;1331;75081;-81
2022/04/27 00:47:14;;;;;;;;;;;;;;;18.97;45.54;100794.04;102574;1332;61619;-83
2022/04/27 00:50:20;;;;;;;;;;;;;;;18.97;45.64;100795.64;102116;1337;61110;-81
2022/04/27 00:53:09;;;;;;;;;;;;;;;18.98;45.61;100791.34;102867;1323;71915;-87
2022/04/27 00:56:24;;;;;;;;;;;;;;;18.97;45.64;100792.43;102657;1328;73573;-81
2022/04/27 00:59:28;;;;;;;;;;;;;;;;;;;;;
2022/04/27 01:02:15;;;;;;;;;;;;;;;;;;;;;
2022/04/27 01:04:56;;;;;;;;;;;;;;;18.97;45.65;100789.23;103057;1323;72798;-83
2022/04/27 01:07:45;;;;;;;;;;;;;;;18.98;45.57;100787.43;103265;1321;76281;-84
2022/04/27 01:10:40;;;;;;;;;;;;;;;18.98;45.62;100782.98;103038;1326;61302;-85
2022/04/27 01:13:41;;;;;;;;;;;;;;;18.97;45.62;100785.33;102989;1325;61666;-81
2022/04/27 01:16:35;;;;;;;;;;;;;;;18.97;45.75;100787.27;103020;1325;73833;-85
2022/04/27 01:19:23;;;;;;;;;;;;;;;18.97;45.63;100786.39;102581;1329;75795;-82
2022/04/27 01:22:01;;;;;;;;;;;;;;;18.97;45.67;100790.88;102566;1329;61205;-85
2022/04/27 01:24:54;;;;;;;;;;;;;;;18.97;45.68;100800.33;102562;1332;61229;-83
2022/04/27 01:27:49;;;;;;;;;;;;;;;18.97;45.62;100812.46;102665;1328;72784;-84
2022/04/27 01:30:29;;;;;;;;;;;;;;;18.96;45.68;100813.71;102791;1329;76097;-83
2022/04/27 01:33:20;;;;;;;;;;;;;;;18.97;45.67;100818.52;102882;1321;61248;-86
2022/04/27 01:36:20;;;;;;;;;;;;;;;18.96;45.58;100822.27;103275;1321;61223;-81
2022/04/27 01:39:15;;;;;;;;;;;;;;;;;;;;;
2022/04/27 01:42:04;;;;;;;;;;;;;;;18.96;45.62;100826.76;102730;1326;73947;-83
2022/04/27 01:45:17;;;;;;;;;;;;;;;18.96;45.65;100829.79;102713;1326;61534;-80
2022/04/27 01:47:36;;;;;;;;;;;;;;;;;;;;;
2022/04/27 01:50:25;;;;;;;;;;;;;;;18.96;45.60;100836.19;103340;1320;71679;-83
2022/04/27 01:56:31;;;;;;;;;;;;;;;;;;;;;
2022/04/27 01:59:43;;;;;;;;;;;;;;;18.96;45.69;100837.31;103248;1322;61223;-82
2022/04/27 02:02:33;;;;;;;;;;;;;;;18.96;45.65;100838.20;103226;1323;72811;-82
2022/04/27 02:05:14;;;;;;;;;;;;;;;18.96;45.63;100840.00;103301;1323;75145;-84
2022/04/27 02:07:47;;;;;;;;;;;;;;;18.96;45.69;100843.21;103278;1322;61572;-86
2022/04/27 02:11:04;;;;;;;;;;;;;;;18.95;45.71;100841.80;102678;1328;61176;-82
2022/04/27 02:13:56;;;;;;;;;;;;;;;18.95;45.70;100841.06;102680;1329;72797;-79
2022/04/27 02:16:45;;;;;;;;;;;;;;;18.95;45.76;100837.48;102549;1327;74772;-81
2022/04/27 02:19:48;;;;;;;;;;;;;;;18.96;45.70;100838.20;102698;1329;61429;-83
2022/04/27 02:22:30;;;;;;;;;;;;;;;;;;;;;
2022/04/27 02:25:16;;;;;;;;;;;;;;;18.96;45.74;100837.66;102488;1332;72828;-83
2022/04/27 02:27:45;;;;;;;;;;;;;;;18.95;45.68;100837.34;102509;1332;75817;-83
2022/04/27 02:30:52;;;;;;;;;;;;;;;18.95;45.71;100834.31;102540;1329;61435;-82
2022/04/27 02:33:40;;;;;;;;;;;;;;;18.95;45.78;100831.81;102712;1329;61215;-82
2022/04/27 02:36:32;;;;;;;;;;;;;;;18.95;45.74;100837.90;102746;1326;72915;-82
2022/04/27 02:39:28;;;;;;;;;;;;;;;;;;;;;
2022/04/27 02:42:14;;;;;;;;;;;;;;;18.95;45.73;100848.60;102795;1327;61242;-86
2022/04/27 02:45:12;;;;;;;;;;;;;;;;;;;;;
2022/04/27 02:47:41;;;;;;;;;;;;;;;18.95;45.79;100853.25;102945;1323;72749;-83
2022/04/27 02:54:09;;;;;;;;;;;;;;;18.94;45.73;100852.02;103184;1319;61200;-87
2022/04/27 02:57:21;;;;;;;;;;;;;;;18.94;45.70;100855.42;103747;1320;62319;-83
2022/04/27 03:00:26;;;;;;;;;;;;;;;18.94;45.73;100862.73;104026;1314;72933;-85
2022/04/27 03:03:29;;;;;;;;;;;;;;;;;;;;;
2022/04/27 03:06:26;;;;;;;;;;;;;;;18.95;45.82;100866.28;104319;1314;60411;-86
2022/04/27 03:09:22;;;;;;;;;;;;;;;;;;;;;
2022/04/27 03:12:21;;;;;;;;;;;;;;;18.94;45.65;100867.02;103621;1320;73806;-84
2022/04/27 03:18:46;;;;;;;;;;;;;;;18.95;45.86;100868.04;102084;1337;61208;-82
2022/04/27 03:21:53;;;;;;;;;;;;;;;18.95;45.88;100872.67;102088;1338;61174;-83
2022/04/27 03:24:38;;;;;;;;;;;;;;;18.95;45.90;100872.34;101828;1341;72971;-85
2022/04/27 03:27:42;;;;;;;;;;;;;;;18.95;45.84;100877.31;101759;1340;74818;-82
2022/04/27 03:31:00;;;;;;;;;;;;;;;18.95;45.88;100880.87;101870;1341;61284;-84
2022/04/27 03:33:53;;;;;;;;;;;;;;;18.95;45.85;100883.33;101820;1341;61863;-90
2022/04/27 03:36:49;;;;;;;;;;;;;;;18.95;45.85;100886.73;101890;1341;73869;-82
2022/04/27 03:40:05;;;;;;;;;;;;;;;;;;;;;
2022/04/27 03:43:20;;;;;;;;;;;;;;;18.97;45.86;100895.89;101717;1347;61707;-80
2022/04/27 03:46:15;;;;;;;;;;;;;;;18.98;45.77;100897.29;101662;1345;61478;-87
2022/04/27 03:49:26;;;;;;;;;;;;;;;18.99;45.78;100893.32;101540;1350;73378;-82
2022/04/27 03:52:01;;;;;;;;;;;;;;;18.99;45.76;100893.64;101361;1350;74965;-84
2022/04/27 03:54:59;;;;;;;;;;;;;;;;;;;;;
2022/04/27 03:58:05;;;;;;;;;;;;;;;;;;;;;
2022/04/27 04:01:11;;;;;;;;;;;;;;;19.00;45.83;100896.77;101796;1338;74026;-83
2022/04/27 04:04:12;;;;;;;;;;;;;;;19.01;45.80;100899.59;101999;1335;76103;-86
2022/04/27 04:06:58;;;;;;;;;;;;;;;;;;;;;
2022/04/27 04:09:47;;;;;;;;;;;;;;;19.01;45.78;100914.73;102218;1335;61628;-81
2022/04/27 04:12:45;;;;;;;;;;;;;;;19.02;45.91;100919.16;102224;1335;73191;-82
2022/04/27 04:15:41;;;;;;;;;;;;;;;19.02;45.89;100924.66;102320;1335;74857;-84
2022/04/27 04:18:16;;;;;;;;;;;;;;;19.02;45.87;100926.98;102546;1328;61213;-83
2022/04/27 04:21:04;;;;;;;;;;;;;;;19.02;45.91;100931.24;102533;1332;61385;-84
2022/04/27 04:24:11;;;;;;;;;;;;;;;19.02;45.87;100937.13;102305;1329;71630;-83
2022/04/27 04:30:10;;;;;;;;;;;;;;;19.03;45.88;100940.48;102564;1332;61244;-84
2022/04/27 04:33:16;;;;;;;;;;;;;;;19.03;45.98;100941.94;102055;1337;61324;-88
2022/04/27 04:36:28;;;;;;;;;;;;;;;;;;;;;
2022/04/27 04:39:23;;;;;;;;;;;;;;;19.03;45.98;100947.78;102420;1334;76531;-83
2022/04/27 04:42:08;;;;;;;;;;;;;;;19.03;46.03;100948.33;102439;1335;61694;-83
2022/04/27 04:45:07;;;;;;;;;;;;;;;19.03;46.03;100951.89;102444;1335;61515;-81
2022/04/27 04:48:24;;;;;;;;;;;;;;;;;;;;;
2022/04/27 04:51:39;;;;;;;;;;;;;;;19.03;45.96;100955.48;102436;1333;75829;-82
2022/04/27 04:54:06;;;;;;;;;;;;;;;19.02;45.98;100956.40;102442;1334;61210;-83
2022/04/27 04:57:33;;;;;;;;;;;;;;;19.02;46.06;100961.92;102004;1338;60929;-81
2022/04/27 05:00:20;;;;;;;;;;;;;;;19.03;46.02;100967.63;102031;1335;71875;-83
2022/04/27 05:03:01;;;;;;;;;;;;;;;19.02;46.02;100971.38;102374;1329;75948;-84
2022/04/27 05:05:58;;;;;;;;;;;;;;;;;;;;;
2022/04/27 05:09:02;;;;;;;;;;;;;;;;;;;;;
2022/04/27 05:11:39;;;;;;;;;;;;;;;19.04;45.94;100981.77;103336;1320;72883;-83
2022/04/27 05:14:19;;;;;;;;;;;;;;;19.05;45.83;100979.08;103368;1318;74865;-85
2022/04/27 05:17:07;;;;;;;;;;;;;;;19.06;45.89;100987.02;103147;1320;61614;-80
2022/04/27 05:19:53;;;;;;;;;;;;;;;19.07;45.89;100986.61;103234;1321;61259;-80
2022/04/27 05:22:30;;;;;;;;;;;;;;;19.08;45.91;100987.08;103243;1321;73287;-81
2022/04/27 05:25:34;;;;;;;;;;;;;;;19.09;45.71;100979.70;103364;1320;74760;-83
2022/04/27 05:28:15;;;;;;;;;;;;;;;19.11;45.77;100984.44;103215;1320;61242;-84
2022/04/27 05:34:30;;;;;;;;;;;;;;;19.14;45.68;100986.73;103822;1315;72400;-83
2022/04/27 05:37:04;;;;;;;;;;;;;;;19.16;45.83;100988.61;104101;1315;73971;-84
2022/04/27 05:39:57;;;;;;;;;;;;;;;19.17;45.78;100991.00;104240;1313;61324;-83
2022/04/27 05:42:39;;;;;;;;;;;;;;;19.19;45.80;100994.27;104127;1306;61396;-83
2022/04/27 05:45:21;;;;;;;;;;;;;;;19.21;45.99;100994.89;104681;1306;73124;-81
2022/04/27 05:48:12;;;;;;;;;;;;;;;19.22;45.76;101002.50;104595;1306;75706;-83
2022/04/27 05:51:07;;;;;;;;;;;;;;;19.22;45.82;101001.23;104662;1306;61142;-84
2022/04/27 05:53:55;;;;;;;;;;;;;;;19.23;45.74;101012.77;104774;1305;61287;-79
2022/04/27 05:56:30;;;;;;;;;;;;;;;19.24;45.55;101025.17;104754;1305;73924;-84
2022/04/27 05:59:28;;;;;;;;;;;;;;;19.26;45.45;101023.48;104611;1306;74779;-82
2022/04/27 06:02:15;;;;;;;;;;;;;;;19.26;45.65;101033.45;104844;1305;61267;-82
2022/04/27 06:05:26;;;;;;;;;;;;;;;19.27;45.56;101030.93;104591;1309;61156;-85
2022/04/27 06:08:10;;;;;;;;;;;;;;;19.28;45.58;101031.98;104834;1306;72777;-86
2022/04/27 06:10:39;;;;;;;;;;;;;;;19.28;45.53;101038.16;104798;1306;74069;-82
2022/04/27 06:13:35;;;;;;;;;;;;;;;19.28;45.43;101040.14;104609;1306;61296;-81
2022/04/27 06:16:29;;;;;;;;;;;;;;;;;;;;;
2022/04/27 06:19:17;;;;;;;;;;;;;;;19.28;45.36;101036.38;104846;1306;73973;-82
2022/04/27 06:22:08;;;;;;;;;;;;;;;19.28;45.59;101040.71;104810;1305;74792;-83
2022/04/27 06:25:04;;;;;;;;;;;;;;;19.27;45.33;101044.30;104235;1313;61957;-83
2022/04/27 06:27:49;;;;;;;;;;;;;;;19.27;45.62;101049.83;104283;1314;61514;-79
2022/04/27 06:31:04;;;;;;;;;;;;;;;19.28;45.53;101044.66;103729;1315;71702;-84
2022/04/27 06:33:41;;;;;;;;;;;;;;;19.28;45.50;101046.77;102961;1325;74704;-82
2022/04/27 06:36:46;;;;;;;;;;;;;;;19.27;45.46;101043.95;102970;1326;61637;-82
2022/04/27 06:39:17;;;;;;;;;;;;;;;19.26;45.44;101050.95;102969;1325;61417;-84
2022/04/27 06:42:02;;;;;;;;;;;;;;;19.26;45.52;101050.98;102981;1322;74397;-82
2022/04/27 06:44:38;;;;;;;;;;;;;;;19.26;45.49;101054.17;102947;1326;75920;-81
2022/04/27 06:47:07;;;;;;;;;;;;;;;19.25;45.41;101050.46;102963;1325;61481;-81
2022/04/27 06:50:04;;;;;;;;;;;;;;;19.25;45.35;101052.63;102793;1323;61492;-83
2022/04/27 06:52:46;;;;;;;;;;;;;;;19.24;45.41;101051.23;98590;1324;5904527;-83
2022/04/27 06:55:35;;;;;;;;;;;;;;;19.24;45.49;101056.45;102734;1327;72858;-84
2022/04/27 06:58:11;;;;;;;;;;;;;;;19.23;45.42;101062.71;102767;1327;74791;-81
2022/04/27 07:01:05;;;;;;;;;;;;;;;;;;;;;
2022/04/27 07:03:53;;;;;;;;;;;;;;;;;;;;;
2022/04/27 07:06:49;;;;;;;;;;;;;;;19.21;45.45;101064.44;102989;1323;74171;-83
2022/04/27 07:09:36;;;;;;;;;;;;;;;;;;;;;
2022/04/27 07:12:42;;;;;;;;;;;;;;;;;;;;;
2022/04/27 07:15:17;;;;;;;;;;;;;;;19.21;45.18;101065.20;104392;1312;61624;-82
2022/04/27 07:17:53;;;;;;;;;;;;;;;19.20;45.28;101068.09;104162;1312;72030;-85
2022/04/27 07:20:39;;;;;;;;;;;;;;;19.21;45.26;101066.09;104264;1311;61399;-86
2022/04/27 07:23:17;;;;;;;;;;;;;;;19.21;45.35;101068.39;104426;1312;61125;-81
2022/04/27 07:25:59;;;;;;;;;;;;;;;19.20;45.21;101068.10;104292;1312;61182;-81
2022/04/27 07:28:47;;;;;;;;;;;;;;;;;;;;;
2022/04/27 07:31:50;;;;;;;;;;;;;;;19.20;45.22;101068.99;104711;1305;74955;-82
2022/04/27 07:34:24;;;;;;;;;;;;;;;19.20;45.15;101068.80;104824;1306;61238;-84
2022/04/27 07:37:03;;;;;;;;;;;;;;;;;;;;;
2022/04/27 07:40:01;;;;;;;;;;;;;;;;;;;;;
2022/04/27 07:42:50;;;;;;;;;;;;;;;;;;;;;
2022/04/27 07:45:39;;;;;;;;;;;;;;;19.20;45.33;101064.34;104858;1306;61196;-82
2022/04/27 07:48:07;;;;;;;;;;;;;;;19.21;45.07;101070.02;104802;1305;61134;-80
2022/04/27 07:50:38;;;;;;;;;;;;;;;19.21;45.15;101066.61;104648;1306;72750;-85
2022/04/27 07:53:40;;;;;;;;;;;;;;;;;;;;;
2022/04/27 07:56:39;;;;;;;;;;;;;;;19.21;45.06;101064.80;104796;1305;61372;-80
2022/04/27 07:59:26;;;;;;;;;;;;;;;19.22;45.28;101063.52;104867;1305;61153;-81
2022/04/27 08:02:10;;;;;;;;;;;;;;;19.22;45.21;101065.30;104646;1306;72700;-79
2022/04/27 08:05:01;;;;;;;;;;;;;;;;;;;;;
2022/04/27 08:07:52;;;;;;;;;;;;;;;19.25;45.34;101069.42;104760;1306;61288;-83
2022/04/27 08:10:57;;;;;;;;;;;;;;;;;;;;;
2022/04/27 08:14:10;;;;;;;;;;;;;;;;;;;;;
2022/04/27 08:17:01;;;;;;;;;;;;;;;19.30;45.24;101067.89;104216;1313;75777;-82
2022/04/27 08:22:57;;;;;;;;;;;;;;;19.31;45.20;101065.52;102693;1328;61142;-84
2022/04/27 08:25:43;;;;;;;;;;;;;;;19.31;45.21;101060.66;102644;1329;73088;-83
2022/04/27 08:28:24;;;;;;;;;;;;;;;;;;;;;
2022/04/27 08:31:12;;;;;;;;;;;;;;;;;;;;;
2022/04/27 08:33:59;;;;;;;;;;;;;;;19.34;45.27;101060.15;102707;1328;61515;-83
2022/04/27 08:36:54;;;;;;;;;;;;;;;19.35;45.31;101060.41;102717;1328;72747;-81
2022/04/27 08:39:40;;;;;;;;;;;;;;;19.36;45.29;101055.39;102722;1329;75699;-79
2022/04/27 08:42:25;;;;;;;;;;;;;;;;;;;;;
2022/04/27 08:45:22;;;;;;;;;;;;;;;19.37;45.39;101052.62;102704;1328;61447;-81
2022/04/27 08:48:06;;;;;;;;;;;;;;;19.38;45.34;101051.88;102367;1332;72702;-82
2022/04/27 08:50:46;;;;;;;;;;;;;;;19.38;45.33;101052.39;102537;1326;74732;-86
2022/04/27 08:53:15;;;;;;;;;;;;;;;19.38;45.38;101052.02;102770;1325;61489;-84
2022/04/27 08:56:20;;;;;;;;;;;;;;;;;;;;;
2022/04/27 08:59:17;;;;;;;;;;;;;;;19.40;45.43;101043.02;103023;1313;73952;-84
2022/04/27 09:02:01;;;;;;;;;;;;;;;;;;;;;
2022/04/27 09:04:57;;;;;;;;;;;;;;;19.40;45.50;101042.63;104219;1313;61259;-83
2022/04/27 09:07:26;;;;;;;;;;;;;;;19.40;45.31;101043.50;104041;1313;61185;-82
2022/04/27 09:09:52;;;;;;;;;;;;;;;19.40;45.42;101037.45;103932;1313;72677;-80
2022/04/27 09:12:43;;;;;;;;;;;;;;;19.41;45.38;101040.77;104118;1313;76383;-80
2022/04/27 09:15:20;;;;;;;;;;;;;;;19.41;45.48;101034.59;104085;1313;61169;-83
2022/04/27 09:20:56;;;;;;;;;;;;;;;19.41;45.67;101034.39;104026;1314;73833;-81
2022/04/27 09:23:41;;;;;;;;;;;;;;;19.40;45.37;101025.48;104122;1314;74771;-80
2022/04/27 09:26:17;;;;;;;;;;;;;;;19.40;45.30;101020.50;104422;1309;60244;-80
2022/04/27 09:28:47;;;;;;;;;;;;;;;19.40;45.26;101023.37;104567;1306;61403;-83
2022/04/27 09:31:37;;;;;;;;;;;;;;;;;;;;;
2022/04/27 09:37:38;;;;;;;;;;;;;;;19.40;45.46;101022.28;104540;1308;61294;-82
2022/04/27 09:40:27;;;;;;;;;;;;;;;19.40;45.35;101016.21;104182;1314;61274;-81
2022/04/27 09:43:14;;;;;;;;;;;;;;;19.40;45.19;101012.83;104175;1314;74805;-82
2022/04/27 09:45:55;;;;;;;;;;;;;;;;;;;;;
2022/04/27 09:48:46;;;;;;;;;;;;;;;19.40;45.28;101007.30;104117;1314;61864;-79
2022/04/27 09:51:50;;;;;;;;;;;;;;;19.40;45.20;101008.70;104174;1314;61160;-82
2022/04/27 09:54:28;;;;;;;;;;;;;;;19.41;45.34;101002.44;103793;1316;73724;-82
2022/04/27 09:56:57;;;;;;;;;;;;;;;19.41;45.31;101000.30;103921;1314;74747;-82
2022/04/27 09:59:26;;;;;;;;;;;;;;;19.42;45.18;100998.09;104021;1313;61453;-80
2022/04/27 10:02:15;;;;;;;;;;;;;;;19.42;45.14;101003.25;103981;1314;61140;-81
2022/04/27 10:04:42;;;;;;;;;;;;;;;19.43;45.31;100990.35;104049;1313;72952;-82
2022/04/27 10:07:43;;;;;;;;;;;;;;;19.43;45.29;100990.30;103862;1316;75760;-83
2022/04/27 10:10:17;;;;;;;;;;;;;;;19.44;45.48;100987.26;103486;1320;61196;-82
2022/04/27 10:12:53;;;;;;;;;;;;;;;19.44;45.17;100984.21;103311;1320;61341;-84
2022/04/27 10:15:28;;;;;;;;;;;;;;;19.44;45.17;100982.41;103299;1320;73210;-79
2022/04/27 10:18:19;;;;;;;;;;;;;;;19.44;45.18;100984.92;104086;1314;74005;-84
2022/04/27 10:21:05;;;;;;;;;;;;;;;19.45;45.19;100980.08;103604;1319;61183;-80
2022/04/27 10:24:02;;;;;;;;;;;;;;;19.45;45.17;100985.79;103444;1319;61483;-81
2022/04/27 10:26:28;;;;;;;;;;;;;;;19.45;45.21;100979.33;103117;1320;72698;-80
2022/04/27 10:28:56;;;;;;;;;;;;;;;19.45;45.35;100980.06;103399;1319;61515;-82
2022/04/27 10:32:00;;;;;;;;;;;;;;;19.45;45.19;100977.00;103419;1320;61344;-83
2022/04/27 10:34:29;;;;;;;;;;;;;;;19.46;45.26;100968.76;102788;1325;61309;-83
2022/04/27 10:37:11;;;;;;;;;;;;;;;19.47;45.24;100975.33;102803;1325;73872;-83
2022/04/27 10:39:46;;;;;;;;;;;;;;;19.47;45.15;100967.63;102640;1326;75268;-80
2022/04/27 10:42:50;;;;;;;;;;;;;;;19.47;45.14;100966.91;102733;1325;62498;-86
2022/04/27 10:45:22;;;;;;;;;;;;;;;19.47;45.10;100965.13;102194;1334;61163;-86
2022/04/27 10:48:06;;;;;;;;;;;;;;;19.47;45.10;100959.92;102608;1325;73929;-82
2022/04/27 10:51:17;;;;;;;;;;;;;;;19.48;45.02;100959.01;102713;1329;74729;-80
2022/04/27 10:54:01;;;;;;;;;;;;;;;;;;;;;
2022/04/27 10:56:55;;;;;;;;;;;;;;;19.48;45.02;100949.16;102726;1326;61187;-81
2022/04/27 10:59:51;;;;;;;;;;;;;;;;;;;;;
2022/04/27 11:03:06;;;;;;;;;;;;;;;;;;;;;
2022/04/27 11:05:57;;;;;;;;;;;;;;;19.48;44.98;100947.36;103005;1323;60262;-88
2022/04/27 11:08:55;;;;;;;;;;;;;;;;;;;;;
2022/04/27 11:11:48;;;;;;;;;;;;;;;19.49;44.94;100942.68;102730;1329;72795;-82
2022/04/27 11:14:37;;;;;;;;;;;;;;;;;;;;;
2022/04/27 11:17:23;;;;;;;;;;;;;;;19.49;44.84;100935.33;102731;1328;61311;-89
2022/04/27 11:20:27;;;;;;;;;;;;;;;19.49;44.83;100928.20;102688;1328;61221;-84
2022/04/27 11:23:30;;;;;;;;;;;;;;;19.50;44.85;100931.35;103017;1323;72731;-85
2022/04/27 11:26:22;;;;;;;;;;;;;;;19.50;44.80;100938.30;103394;1320;76931;-83
2022/04/27 11:28:54;;;;;;;;;;;;;;;19.51;44.76;100932.19;103079;1323;61373;-85
2022/04/27 11:31:50;;;;;;;;;;;;;;;19.51;44.79;100925.77;103104;1320;61370;-82
2022/04/27 11:34:29;;;;;;;;;;;;;;;19.51;44.72;100913.98;102958;1321;71525;-84
2022/04/27 11:37:08;;;;;;;;;;;;;;;;;;;;;
2022/04/27 11:39:47;;;;;;;;;;;;;;;19.52;44.63;100910.01;103378;1319;61355;-83
2022/04/27 11:42:27;;;;;;;;;;;;;;;19.52;44.62;100902.34;103534;1317;61224;-84
2022/04/27 11:45:26;;;;;;;;;;;;;;;;;;;;;
2022/04/27 11:48:16;;;;;;;;;;;;;;;19.53;44.63;100898.71;104241;1313;74599;-80
2022/04/27 11:51:08;;;;;;;;;;;;;;;19.53;44.54;100893.70;103325;1320;61457;-88
2022/04/27 11:53:45;;;;;;;;;;;;;;;19.52;44.64;100888.55;102583;1326;61510;-81
2022/04/27 11:56:11;;;;;;;;;;;;;;;19.53;44.55;100895.46;102583;1326;73827;-81
2022/04/27 11:58:48;;;;;;;;;;;;;;;19.54;44.61;100894.19;102553;1326;74719;-80
2022/04/27 12:01:20;;;;;;;;;;;;;;;19.54;44.55;100888.27;102564;1326;61225;-80
2022/04/27 12:03:55;;;;;;;;;;;;;;;19.55;44.50;100883.94;102585;1326;61341;-80
2022/04/27 12:06:30;;;;;;;;;;;;;;;19.56;44.47;100882.44;102555;1326;72040;-82
2022/04/27 12:09:14;;;;;;;;;;;;;;;19.56;44.54;100872.61;102674;1326;75712;-82
2022/04/27 12:11:50;;;;;;;;;;;;;;;19.56;44.54;100868.64;102576;1329;61463;-82
2022/04/27 12:14:21;;;;;;;;;;;;;;;19.57;44.50;100865.41;102692;1326;61463;-85
2022/04/27 12:17:24;;;;;;;;;;;;;;;19.58;44.52;100863.56;102721;1326;72881;-81
2022/04/27 12:19:49;;;;;;;;;;;;;;;19.59;44.47;100858.33;102320;1332;76178;-80
2022/04/27 12:22:18;;;;;;;;;;;;;;;19.59;44.48;100852.79;102299;1332;61378;-80
2022/04/27 12:24:47;;;;;;;;;;;;;;;19.60;44.52;100855.76;102396;1328;61136;-81
2022/04/27 12:27:17;;;;;;;;;;;;;;;19.61;44.45;100849.11;102647;1320;74283;-80
2022/04/27 12:29:42;;;;;;;;;;;;;;;19.62;44.41;100845.87;103399;1320;75005;-80
2022/04/27 12:32:09;;;;;;;;;;;;;;;19.62;44.50;100849.23;103839;1314;61318;-80
2022/04/27 12:37:44;;;;;;;;;;;;;;;19.64;44.50;100835.88;103992;1314;73618;-82
2022/04/27 12:40:21;;;;;;;;;;;;;;;19.65;44.50;100838.67;104189;1314;76086;-83
2022/04/27 12:43:20;;;;;;;;;;;;;;;19.65;44.42;100834.18;104218;1314;61390;-83
2022/04/27 12:46:22;;;;;;;;;;;;;;;19.66;44.36;100826.81;104212;1314;61077;-82
2022/04/27 12:49:08;;;;;;;;;;;;;;;19.67;44.42;100829.09;103519;1319;73211;-85
2022/04/27 12:51:40;;;;;;;;;;;;;;;19.67;44.26;100823.36;103404;1318;75653;-80
2022/04/27 12:54:06;;;;;;;;;;;;;;;19.67;44.37;100817.26;103377;1320;61339;-82
2022/04/27 12:56:42;;;;;;;;;;;;;;;19.68;44.31;100814.94;103677;1314;61276;-83
2022/04/27 12:59:56;;;;;;;;;;;;;;;19.68;44.24;100812.43;104173;1314;73874;-81
2022/04/27 13:02:25;;;;;;;;;;;;;;;19.68;44.25;100815.45;104037;1314;73565;-83
2022/04/27 13:05:01;;;;;;;;;;;;;;;19.67;44.17;100804.27;104100;1314;61279;-82
2022/04/27 13:07:30;;;;;;;;;;;;;;;19.66;44.29;100802.52;104205;1314;61160;-82
2022/04/27 13:13:03;;;;;;;;;;;;;;;19.64;44.35;100795.34;104174;1314;75175;-85
2022/04/27 13:16:00;;;;;;;;;;;;;;;19.64;44.30;100789.98;103979;1314;61199;-81
2022/04/27 13:18:35;;;;;;;;;;;;;;;;;;;;;
2022/04/27 13:21:18;;;;;;;;;;;;;;;;;;;;;
2022/04/27 13:23:57;;;;;;;;;;;;;;;19.63;44.30;100789.91;104231;1314;75803;-83
2022/04/27 13:26:34;;;;;;;;;;;;;;;19.62;44.29;100790.12;104661;1307;61173;-87
2022/04/27 13:29:29;;;;;;;;;;;;;;;19.62;44.33;100783.90;104592;1306;61194;-88
2022/04/27 13:32:02;;;;;;;;;;;;;;;19.61;44.33;100786.78;104506;1306;71479;-83
2022/04/27 13:34:30;;;;;;;;;;;;;;;19.61;44.17;100782.52;104482;1308;74820;-80
2022/04/27 13:36:56;;;;;;;;;;;;;;;19.61;44.18;100779.64;104430;1309;61285;-85
2022/04/27 13:39:35;;;;;;;;;;;;;;;19.61;44.28;100788.56;104665;1306;61039;-82
2022/04/27 13:42:01;;;;;;;;;;;;;;;19.61;44.37;100782.34;104597;1306;73829;-83
2022/04/27 13:44:59;;;;;;;;;;;;;;;19.60;44.29;100780.55;104556;1306;73353;-82
2022/04/27 13:48:00;;;;;;;;;;;;;;;19.60;44.25;100776.64;104746;1306;61291;-79
2022/04/27 13:50:49;;;;;;;;;;;;;;;19.60;44.34;100772.71;104748;1306;61300;-87
2022/04/27 13:53:37;;;;;;;;;;;;;;;19.61;44.33;100769.48;104662;1306;73184;-86
2022/04/27 13:56:22;;;;;;;;;;;;;;;19.60;44.24;100765.75;104712;1306;74821;-85
2022/04/27 13:59:20;;;;;;;;;;;;;;;19.60;44.43;100763.45;104550;1309;61266;-86
2022/04/27 14:02:02;;;;;;;;;;;;;;;;;;;;;
2022/04/27 14:05:18;;;;;;;;;;;;;;;;;;;;;
2022/04/27 14:07:46;;;;;;;;;;;;;;;19.61;44.20;100759.49;104500;1308;75914;-81
2022/04/27 14:10:29;;;;;;;;;;;;;;;19.62;44.09;100757.12;104415;1309;61320;-80
2022/04/27 14:13:14;;;;;;;;;;;;;;;19.62;44.05;100756.56;104574;1309;61691;-83
2022/04/27 14:18:48;;;;;;;;;;;;;;;19.62;44.24;100749.95;104564;1308;74545;-82
2022/04/27 14:21:33;;;;;;;;;;;;;;;;;;;;;
2022/04/27 14:24:32;;;;;;;;;;;;;;;;;;;;;
2022/04/27 14:27:02;;;;;;;;;;;;;;;19.63;44.18;100751.70;104646;1309;73824;-84
2022/04/27 14:29:37;;;;;;;;;;;;;;;19.62;44.26;100748.31;104645;1306;74631;-85
2022/04/27 14:32:41;;;;;;;;;;;;;;;19.63;44.30;100750.64;104563;1306;61027;-81
2022/04/27 14:35:17;;;;;;;;;;;;;;;19.63;44.34;100746.86;104690;1306;61422;-81
2022/04/27 14:38:22;;;;;;;;;;;;;;;19.62;44.19;100741.88;104582;1309;74296;-82
2022/04/27 14:41:16;;;;;;;;;;;;;;;;;;;;;
2022/04/27 14:43:44;;;;;;;;;;;;;;;19.63;44.26;100743.80;104719;1305;62356;-83
2022/04/27 14:46:44;;;;;;;;;;;;;;;19.63;44.10;100742.58;104566;1306;61220;-84
2022/04/27 14:49:41;;;;;;;;;;;;;;;19.63;44.07;100742.92;104662;1306;73493;-85
2022/04/27 14:52:09;;;;;;;;;;;;;;;19.63;44.30;100741.48;104431;1308;74879;-80
2022/04/27 14:54:35;;;;;;;;;;;;;;;19.64;43.99;100739.66;104431;1309;60262;-80
2022/04/27 14:57:20;;;;;;;;;;;;;;;19.64;44.19;100736.76;103812;1316;61218;-83
2022/04/27 14:59:54;;;;;;;;;;;;;;;19.65;44.33;100737.77;103886;1316;61300;-80
2022/04/27 15:02:33;;;;;;;;;;;;;;;19.66;44.25;100736.65;103992;1314;75270;-80
2022/04/27 15:05:04;;;;;;;;;;;;;;;19.67;44.27;100734.99;103978;1313;61136;-83
2022/04/27 15:07:38;;;;;;;;;;;;;;;19.67;44.23;100738.36;104026;1314;61195;-81
2022/04/27 15:10:17;;;;;;;;;;;;;;;19.68;44.29;100736.52;104115;1314;72933;-81
2022/04/27 15:13:06;;;;;;;;;;;;;;;19.69;44.12;100735.54;104040;1314;73271;-84
2022/04/27 15:15:40;;;;;;;;;;;;;;;19.70;44.25;100732.47;104090;1314;61944;-81
2022/04/27 15:18:16;;;;;;;;;;;;;;;19.70;44.20;100737.24;104152;1314;61267;-87
2022/04/27 15:24:20;;;;;;;;;;;;;;;19.71;44.37;100736.30;104162;1314;74644;-83
2022/04/27 15:27:13;;;;;;;;;;;;;;;19.72;44.42;100739.45;103629;1319;61297;-83
2022/04/27 15:29:39;;;;;;;;;;;;;;;19.72;44.33;100740.68;103235;1324;61567;-83
2022/04/27 15:32:08;;;;;;;;;;;;;;;19.72;44.21;100741.22;103120;1324;61337;-84
2022/04/27 15:35:00;;;;;;;;;;;;;;;19.73;44.34;100744.58;103422;1318;74751;-84
2022/04/27 15:37:53;;;;;;;;;;;;;;;19.72;44.37;100744.27;103079;1325;61098;-81
2022/04/27 15:40:52;;;;;;;;;;;;;;;;;;;;;
2022/04/27 15:43:47;;;;;;;;;;;;;;;19.71;44.15;100744.33;102862;1325;72897;-84
2022/04/27 15:46:33;;;;;;;;;;;;;;;19.71;44.27;100742.42;102963;1325;75360;-82
2022/04/27 15:49:22;;;;;;;;;;;;;;;;;;;;;
2022/04/27 15:52:13;;;;;;;;;;;;;;;19.69;44.20;100740.58;102563;1332;61301;-87
2022/04/27 15:54:58;;;;;;;;;;;;;;;19.69;44.17;100739.70;102484;1332;73013;-83
2022/04/27 15:57:44;;;;;;;;;;;;;;;19.68;44.21;100745.48;102490;1332;75502;-83
2022/04/27 16:00:26;;;;;;;;;;;;;;;;;;;;;
2022/04/27 16:03:18;;;;;;;;;;;;;;;19.66;44.22;100750.55;102483;1332;61224;-83
2022/04/27 16:06:04;;;;;;;;;;;;;;;19.66;44.18;100750.44;102761;1329;73692;-84